<?xml version="1.0"?>
<gpx xmlns="http://www.topografix.com/GPX/1/1" version="1.1" creator="afstandmeten.nl" xmlns:xsi="http://www.w3.org/2001/XMLSchema-instance" xsi:schemaLocation="http://www.topografix.com/GPX/1/1 http://www.topografix.com/GPX/1/1/gpx.xsd">
  <trk>
    <name>Chaumont-Nogent</name>
    <desc></desc>
    <trkseg>
      <trkpt lat="48.1113283" lon="5.1355162">
        <time>2015-05-13T00:00:00Z</time>
      </trkpt>
      <trkpt lat="48.11122" lon="5.13549">
        <time>2015-05-13T00:00:02Z</time>
      </trkpt>
      <trkpt lat="48.11121" lon="5.1355">
        <time>2015-05-13T00:00:02Z</time>
      </trkpt>
      <trkpt lat="48.11118" lon="5.1355">
        <time>2015-05-13T00:00:03Z</time>
      </trkpt>
      <trkpt lat="48.11117" lon="5.13549">
        <time>2015-05-13T00:00:03Z</time>
      </trkpt>
      <trkpt lat="48.11111" lon="5.13551">
        <time>2015-05-13T00:00:04Z</time>
      </trkpt>
      <trkpt lat="48.11097" lon="5.13558">
        <time>2015-05-13T00:00:06Z</time>
      </trkpt>
      <trkpt lat="48.11074" lon="5.13566">
        <time>2015-05-13T00:00:09Z</time>
      </trkpt>
      <trkpt lat="48.11068" lon="5.13571">
        <time>2015-05-13T00:00:10Z</time>
      </trkpt>
      <trkpt lat="48.11053" lon="5.13581">
        <time>2015-05-13T00:00:12Z</time>
      </trkpt>
      <trkpt lat="48.11037" lon="5.1359">
        <time>2015-05-13T00:00:15Z</time>
      </trkpt>
      <trkpt lat="48.10985" lon="5.13621">
        <time>2015-05-13T00:00:23Z</time>
      </trkpt>
      <trkpt lat="48.10981" lon="5.13626">
        <time>2015-05-13T00:00:23Z</time>
      </trkpt>
      <trkpt lat="48.10966" lon="5.13643">
        <time>2015-05-13T00:00:26Z</time>
      </trkpt>
      <trkpt lat="48.10932" lon="5.13682">
        <time>2015-05-13T00:00:32Z</time>
      </trkpt>
      <trkpt lat="48.1091" lon="5.1371">
        <time>2015-05-13T00:00:36Z</time>
      </trkpt>
      <trkpt lat="48.10904" lon="5.13732">
        <time>2015-05-13T00:00:38Z</time>
      </trkpt>
      <trkpt lat="48.10898" lon="5.1382">
        <time>2015-05-13T00:00:47Z</time>
      </trkpt>
      <trkpt lat="48.10887" lon="5.13974">
        <time>2015-05-13T00:01:01Z</time>
      </trkpt>
      <trkpt lat="48.10887" lon="5.14027">
        <time>2015-05-13T00:01:06Z</time>
      </trkpt>
      <trkpt lat="48.1089" lon="5.1406">
        <time>2015-05-13T00:01:09Z</time>
      </trkpt>
      <trkpt lat="48.108" lon="5.14081">
        <time>2015-05-13T00:01:22Z</time>
      </trkpt>
      <trkpt lat="48.10634" lon="5.14127">
        <time>2015-05-13T00:01:46Z</time>
      </trkpt>
      <trkpt lat="48.10617" lon="5.14133">
        <time>2015-05-13T00:01:49Z</time>
      </trkpt>
      <trkpt lat="48.10602" lon="5.14142">
        <time>2015-05-13T00:01:51Z</time>
      </trkpt>
      <trkpt lat="48.10563" lon="5.14179">
        <time>2015-05-13T00:01:57Z</time>
      </trkpt>
      <trkpt lat="48.10549" lon="5.14195">
        <time>2015-05-13T00:02:00Z</time>
      </trkpt>
      <trkpt lat="48.10542" lon="5.14198">
        <time>2015-05-13T00:02:01Z</time>
      </trkpt>
      <trkpt lat="48.105" lon="5.14244">
        <time>2015-05-13T00:02:08Z</time>
      </trkpt>
      <trkpt lat="48.10419" lon="5.14334">
        <time>2015-05-13T00:02:22Z</time>
      </trkpt>
      <trkpt lat="48.10383" lon="5.14372">
        <time>2015-05-13T00:02:29Z</time>
      </trkpt>
      <trkpt lat="48.1036" lon="5.14398">
        <time>2015-05-13T00:02:33Z</time>
      </trkpt>
      <trkpt lat="48.1033" lon="5.14423">
        <time>2015-05-13T00:02:38Z</time>
      </trkpt>
      <trkpt lat="48.10298" lon="5.14438">
        <time>2015-05-13T00:02:42Z</time>
      </trkpt>
      <trkpt lat="48.10259" lon="5.14448">
        <time>2015-05-13T00:02:48Z</time>
      </trkpt>
      <trkpt lat="48.10254" lon="5.14452">
        <time>2015-05-13T00:02:49Z</time>
      </trkpt>
      <trkpt lat="48.10188" lon="5.14463">
        <time>2015-05-13T00:02:58Z</time>
      </trkpt>
      <trkpt lat="48.10083" lon="5.14477">
        <time>2015-05-13T00:03:13Z</time>
      </trkpt>
      <trkpt lat="48.1" lon="5.14491">
        <time>2015-05-13T00:03:25Z</time>
      </trkpt>
      <trkpt lat="48.09905" lon="5.14505">
        <time>2015-05-13T00:03:38Z</time>
      </trkpt>
      <trkpt lat="48.09745" lon="5.1453">
        <time>2015-05-13T00:04:01Z</time>
      </trkpt>
      <trkpt lat="48.09671" lon="5.14537">
        <time>2015-05-13T00:04:11Z</time>
      </trkpt>
      <trkpt lat="48.09621" lon="5.14541">
        <time>2015-05-13T00:04:18Z</time>
      </trkpt>
      <trkpt lat="48.09604" lon="5.14537">
        <time>2015-05-13T00:04:21Z</time>
      </trkpt>
      <trkpt lat="48.09544" lon="5.14542">
        <time>2015-05-13T00:04:29Z</time>
      </trkpt>
      <trkpt lat="48.09491" lon="5.14544">
        <time>2015-05-13T00:04:37Z</time>
      </trkpt>
      <trkpt lat="48.09384" lon="5.1455">
        <time>2015-05-13T00:04:52Z</time>
      </trkpt>
      <trkpt lat="48.09322" lon="5.14553">
        <time>2015-05-13T00:05:01Z</time>
      </trkpt>
      <trkpt lat="48.09255" lon="5.14549">
        <time>2015-05-13T00:05:10Z</time>
      </trkpt>
      <trkpt lat="48.09255" lon="5.14547">
        <time>2015-05-13T00:05:10Z</time>
      </trkpt>
      <trkpt lat="48.09254" lon="5.14543">
        <time>2015-05-13T00:05:11Z</time>
      </trkpt>
      <trkpt lat="48.09251" lon="5.14538">
        <time>2015-05-13T00:05:11Z</time>
      </trkpt>
      <trkpt lat="48.09246" lon="5.14535">
        <time>2015-05-13T00:05:12Z</time>
      </trkpt>
      <trkpt lat="48.09242" lon="5.14535">
        <time>2015-05-13T00:05:13Z</time>
      </trkpt>
      <trkpt lat="48.09236" lon="5.14538">
        <time>2015-05-13T00:05:14Z</time>
      </trkpt>
      <trkpt lat="48.09234" lon="5.14543">
        <time>2015-05-13T00:05:14Z</time>
      </trkpt>
      <trkpt lat="48.09233" lon="5.14546">
        <time>2015-05-13T00:05:14Z</time>
      </trkpt>
      <trkpt lat="48.09233" lon="5.14547">
        <time>2015-05-13T00:05:14Z</time>
      </trkpt>
      <trkpt lat="48.09223" lon="5.14547">
        <time>2015-05-13T00:05:16Z</time>
      </trkpt>
      <trkpt lat="48.09144" lon="5.14532">
        <time>2015-05-13T00:05:27Z</time>
      </trkpt>
      <trkpt lat="48.09113" lon="5.14529">
        <time>2015-05-13T00:05:31Z</time>
      </trkpt>
      <trkpt lat="48.09091" lon="5.14532">
        <time>2015-05-13T00:05:35Z</time>
      </trkpt>
      <trkpt lat="48.0908" lon="5.14535">
        <time>2015-05-13T00:05:36Z</time>
      </trkpt>
      <trkpt lat="48.08997" lon="5.14528">
        <time>2015-05-13T00:05:48Z</time>
      </trkpt>
      <trkpt lat="48.08913" lon="5.14531">
        <time>2015-05-13T00:06:00Z</time>
      </trkpt>
      <trkpt lat="48.08883" lon="5.14535">
        <time>2015-05-13T00:06:04Z</time>
      </trkpt>
      <trkpt lat="48.08852" lon="5.14549">
        <time>2015-05-13T00:06:09Z</time>
      </trkpt>
      <trkpt lat="48.08829" lon="5.14567">
        <time>2015-05-13T00:06:12Z</time>
      </trkpt>
      <trkpt lat="48.08814" lon="5.14574">
        <time>2015-05-13T00:06:14Z</time>
      </trkpt>
      <trkpt lat="48.08759" lon="5.14622">
        <time>2015-05-13T00:06:23Z</time>
      </trkpt>
      <trkpt lat="48.08728" lon="5.14633">
        <time>2015-05-13T00:06:28Z</time>
      </trkpt>
      <trkpt lat="48.08696" lon="5.14634">
        <time>2015-05-13T00:06:32Z</time>
      </trkpt>
      <trkpt lat="48.08674" lon="5.14631">
        <time>2015-05-13T00:06:36Z</time>
      </trkpt>
      <trkpt lat="48.08578" lon="5.14611">
        <time>2015-05-13T00:06:49Z</time>
      </trkpt>
      <trkpt lat="48.08527" lon="5.14603">
        <time>2015-05-13T00:06:56Z</time>
      </trkpt>
      <trkpt lat="48.08499" lon="5.146">
        <time>2015-05-13T00:07:00Z</time>
      </trkpt>
      <trkpt lat="48.08437" lon="5.146">
        <time>2015-05-13T00:07:09Z</time>
      </trkpt>
      <trkpt lat="48.08349" lon="5.14606">
        <time>2015-05-13T00:07:22Z</time>
      </trkpt>
      <trkpt lat="48.08276" lon="5.1461">
        <time>2015-05-13T00:07:32Z</time>
      </trkpt>
      <trkpt lat="48.08227" lon="5.14608">
        <time>2015-05-13T00:07:39Z</time>
      </trkpt>
      <trkpt lat="48.08181" lon="5.14605">
        <time>2015-05-13T00:07:45Z</time>
      </trkpt>
      <trkpt lat="48.08099" lon="5.14597">
        <time>2015-05-13T00:07:57Z</time>
      </trkpt>
      <trkpt lat="48.08046" lon="5.14583">
        <time>2015-05-13T00:08:04Z</time>
      </trkpt>
      <trkpt lat="48.0803" lon="5.14577">
        <time>2015-05-13T00:08:07Z</time>
      </trkpt>
      <trkpt lat="48.0802" lon="5.1458">
        <time>2015-05-13T00:08:08Z</time>
      </trkpt>
      <trkpt lat="48.07932" lon="5.14552">
        <time>2015-05-13T00:08:21Z</time>
      </trkpt>
      <trkpt lat="48.07931" lon="5.14557">
        <time>2015-05-13T00:08:21Z</time>
      </trkpt>
      <trkpt lat="48.07928" lon="5.14564">
        <time>2015-05-13T00:08:22Z</time>
      </trkpt>
      <trkpt lat="48.07922" lon="5.14569">
        <time>2015-05-13T00:08:23Z</time>
      </trkpt>
      <trkpt lat="48.07917" lon="5.1457">
        <time>2015-05-13T00:08:24Z</time>
      </trkpt>
      <trkpt lat="48.0791" lon="5.1457">
        <time>2015-05-13T00:08:25Z</time>
      </trkpt>
      <trkpt lat="48.07905" lon="5.14567">
        <time>2015-05-13T00:08:26Z</time>
      </trkpt>
      <trkpt lat="48.07901" lon="5.1456">
        <time>2015-05-13T00:08:27Z</time>
      </trkpt>
      <trkpt lat="48.07899" lon="5.14554">
        <time>2015-05-13T00:08:27Z</time>
      </trkpt>
      <trkpt lat="48.0786" lon="5.14541">
        <time>2015-05-13T00:08:33Z</time>
      </trkpt>
      <trkpt lat="48.07807" lon="5.14547">
        <time>2015-05-13T00:08:40Z</time>
      </trkpt>
      <trkpt lat="48.0776" lon="5.14554">
        <time>2015-05-13T00:08:47Z</time>
      </trkpt>
      <trkpt lat="48.07753" lon="5.14563">
        <time>2015-05-13T00:08:48Z</time>
      </trkpt>
      <trkpt lat="48.07333" lon="5.1463">
        <time>2015-05-13T00:09:48Z</time>
      </trkpt>
      <trkpt lat="48.07132" lon="5.14661">
        <time>2015-05-13T00:10:16Z</time>
      </trkpt>
      <trkpt lat="48.07102" lon="5.14669">
        <time>2015-05-13T00:10:21Z</time>
      </trkpt>
      <trkpt lat="48.07059" lon="5.14687">
        <time>2015-05-13T00:10:27Z</time>
      </trkpt>
      <trkpt lat="48.07017" lon="5.1471">
        <time>2015-05-13T00:10:33Z</time>
      </trkpt>
      <trkpt lat="48.07012" lon="5.14708">
        <time>2015-05-13T00:10:34Z</time>
      </trkpt>
      <trkpt lat="48.06991" lon="5.14723">
        <time>2015-05-13T00:10:37Z</time>
      </trkpt>
      <trkpt lat="48.06892" lon="5.14795">
        <time>2015-05-13T00:10:53Z</time>
      </trkpt>
      <trkpt lat="48.06854" lon="5.14814">
        <time>2015-05-13T00:10:58Z</time>
      </trkpt>
      <trkpt lat="48.06823" lon="5.14825">
        <time>2015-05-13T00:11:03Z</time>
      </trkpt>
      <trkpt lat="48.0678" lon="5.14839">
        <time>2015-05-13T00:11:09Z</time>
      </trkpt>
      <trkpt lat="48.06657" lon="5.14884">
        <time>2015-05-13T00:11:27Z</time>
      </trkpt>
      <trkpt lat="48.06633" lon="5.14899">
        <time>2015-05-13T00:11:31Z</time>
      </trkpt>
      <trkpt lat="48.06608" lon="5.1492">
        <time>2015-05-13T00:11:35Z</time>
      </trkpt>
      <trkpt lat="48.06577" lon="5.1495">
        <time>2015-05-13T00:11:40Z</time>
      </trkpt>
      <trkpt lat="48.06577" lon="5.1495">
        <time>2015-05-13T00:11:40Z</time>
      </trkpt>
      <trkpt lat="48.06497" lon="5.15024">
        <time>2015-05-13T00:11:53Z</time>
      </trkpt>
      <trkpt lat="48.06476" lon="5.15036">
        <time>2015-05-13T00:11:56Z</time>
      </trkpt>
      <trkpt lat="48.06456" lon="5.15042">
        <time>2015-05-13T00:11:59Z</time>
      </trkpt>
      <trkpt lat="48.06434" lon="5.15045">
        <time>2015-05-13T00:12:02Z</time>
      </trkpt>
      <trkpt lat="48.06408" lon="5.15038">
        <time>2015-05-13T00:12:06Z</time>
      </trkpt>
      <trkpt lat="48.06242" lon="5.14953">
        <time>2015-05-13T00:12:31Z</time>
      </trkpt>
      <trkpt lat="48.06231" lon="5.14945">
        <time>2015-05-13T00:12:33Z</time>
      </trkpt>
      <trkpt lat="48.0622" lon="5.14932">
        <time>2015-05-13T00:12:35Z</time>
      </trkpt>
      <trkpt lat="48.06046" lon="5.14611">
        <time>2015-05-13T00:13:13Z</time>
      </trkpt>
      <trkpt lat="48.06028" lon="5.14587">
        <time>2015-05-13T00:13:17Z</time>
      </trkpt>
      <trkpt lat="48.06018" lon="5.14577">
        <time>2015-05-13T00:13:19Z</time>
      </trkpt>
      <trkpt lat="48.06005" lon="5.14569">
        <time>2015-05-13T00:13:21Z</time>
      </trkpt>
      <trkpt lat="48.05983" lon="5.14564">
        <time>2015-05-13T00:13:24Z</time>
      </trkpt>
      <trkpt lat="48.05961" lon="5.14572">
        <time>2015-05-13T00:13:27Z</time>
      </trkpt>
      <trkpt lat="48.05912" lon="5.14602">
        <time>2015-05-13T00:13:34Z</time>
      </trkpt>
      <trkpt lat="48.05826" lon="5.14659">
        <time>2015-05-13T00:13:48Z</time>
      </trkpt>
      <trkpt lat="48.05814" lon="5.14664">
        <time>2015-05-13T00:13:49Z</time>
      </trkpt>
      <trkpt lat="48.05804" lon="5.14666">
        <time>2015-05-13T00:13:51Z</time>
      </trkpt>
      <trkpt lat="48.0569" lon="5.1465">
        <time>2015-05-13T00:14:07Z</time>
      </trkpt>
      <trkpt lat="48.05662" lon="5.14648">
        <time>2015-05-13T00:14:11Z</time>
      </trkpt>
      <trkpt lat="48.05633" lon="5.14649">
        <time>2015-05-13T00:14:15Z</time>
      </trkpt>
      <trkpt lat="48.05586" lon="5.14649">
        <time>2015-05-13T00:14:22Z</time>
      </trkpt>
      <trkpt lat="48.05467" lon="5.14629">
        <time>2015-05-13T00:14:39Z</time>
      </trkpt>
      <trkpt lat="48.05419" lon="5.14624">
        <time>2015-05-13T00:14:45Z</time>
      </trkpt>
      <trkpt lat="48.05346" lon="5.14621">
        <time>2015-05-13T00:14:56Z</time>
      </trkpt>
      <trkpt lat="48.05323" lon="5.14623">
        <time>2015-05-13T00:14:59Z</time>
      </trkpt>
      <trkpt lat="48.05311" lon="5.14627">
        <time>2015-05-13T00:15:01Z</time>
      </trkpt>
      <trkpt lat="48.05286" lon="5.14638">
        <time>2015-05-13T00:15:04Z</time>
      </trkpt>
      <trkpt lat="48.05265" lon="5.14652">
        <time>2015-05-13T00:15:07Z</time>
      </trkpt>
      <trkpt lat="48.05249" lon="5.14668">
        <time>2015-05-13T00:15:10Z</time>
      </trkpt>
      <trkpt lat="48.05237" lon="5.14686">
        <time>2015-05-13T00:15:13Z</time>
      </trkpt>
      <trkpt lat="48.05183" lon="5.14775">
        <time>2015-05-13T00:15:24Z</time>
      </trkpt>
      <trkpt lat="48.05104" lon="5.14894">
        <time>2015-05-13T00:15:40Z</time>
      </trkpt>
      <trkpt lat="48.0509" lon="5.14906">
        <time>2015-05-13T00:15:42Z</time>
      </trkpt>
      <trkpt lat="48.05081" lon="5.14912">
        <time>2015-05-13T00:15:43Z</time>
      </trkpt>
      <trkpt lat="48.05052" lon="5.1492">
        <time>2015-05-13T00:15:48Z</time>
      </trkpt>
      <trkpt lat="48.0494" lon="5.15044">
        <time>2015-05-13T00:16:07Z</time>
      </trkpt>
      <trkpt lat="48.04928" lon="5.15055">
        <time>2015-05-13T00:16:09Z</time>
      </trkpt>
      <trkpt lat="48.04916" lon="5.1506">
        <time>2015-05-13T00:16:11Z</time>
      </trkpt>
      <trkpt lat="48.04856" lon="5.15088">
        <time>2015-05-13T00:16:20Z</time>
      </trkpt>
      <trkpt lat="48.04847" lon="5.15093">
        <time>2015-05-13T00:16:21Z</time>
      </trkpt>
      <trkpt lat="48.0483" lon="5.15113">
        <time>2015-05-13T00:16:24Z</time>
      </trkpt>
      <trkpt lat="48.04807" lon="5.15143">
        <time>2015-05-13T00:16:29Z</time>
      </trkpt>
      <trkpt lat="48.04773" lon="5.15201">
        <time>2015-05-13T00:16:36Z</time>
      </trkpt>
      <trkpt lat="48.04757" lon="5.15233">
        <time>2015-05-13T00:16:40Z</time>
      </trkpt>
      <trkpt lat="48.04741" lon="5.15259">
        <time>2015-05-13T00:16:43Z</time>
      </trkpt>
      <trkpt lat="48.04674" lon="5.1533">
        <time>2015-05-13T00:16:55Z</time>
      </trkpt>
      <trkpt lat="48.04594" lon="5.15417">
        <time>2015-05-13T00:17:08Z</time>
      </trkpt>
      <trkpt lat="48.04545" lon="5.15459">
        <time>2015-05-13T00:17:16Z</time>
      </trkpt>
      <trkpt lat="48.04507" lon="5.15485">
        <time>2015-05-13T00:17:22Z</time>
      </trkpt>
      <trkpt lat="48.04489" lon="5.15496">
        <time>2015-05-13T00:17:25Z</time>
      </trkpt>
      <trkpt lat="48.04458" lon="5.15511">
        <time>2015-05-13T00:17:30Z</time>
      </trkpt>
      <trkpt lat="48.04436" lon="5.15518">
        <time>2015-05-13T00:17:33Z</time>
      </trkpt>
      <trkpt lat="48.04397" lon="5.15525">
        <time>2015-05-13T00:17:38Z</time>
      </trkpt>
      <trkpt lat="48.04347" lon="5.1554">
        <time>2015-05-13T00:17:46Z</time>
      </trkpt>
      <trkpt lat="48.04333" lon="5.15549">
        <time>2015-05-13T00:17:48Z</time>
      </trkpt>
      <trkpt lat="48.04327" lon="5.15558">
        <time>2015-05-13T00:17:49Z</time>
      </trkpt>
      <trkpt lat="48.04318" lon="5.15583">
        <time>2015-05-13T00:17:52Z</time>
      </trkpt>
      <trkpt lat="48.04309" lon="5.15632">
        <time>2015-05-13T00:17:56Z</time>
      </trkpt>
      <trkpt lat="48.04305" lon="5.15678">
        <time>2015-05-13T00:18:01Z</time>
      </trkpt>
      <trkpt lat="48.04305" lon="5.15747">
        <time>2015-05-13T00:18:07Z</time>
      </trkpt>
      <trkpt lat="48.04303" lon="5.15789">
        <time>2015-05-13T00:18:11Z</time>
      </trkpt>
      <trkpt lat="48.04299" lon="5.15826">
        <time>2015-05-13T00:18:15Z</time>
      </trkpt>
      <trkpt lat="48.04284" lon="5.15903">
        <time>2015-05-13T00:18:22Z</time>
      </trkpt>
      <trkpt lat="48.04281" lon="5.15921">
        <time>2015-05-13T00:18:24Z</time>
      </trkpt>
      <trkpt lat="48.04276" lon="5.15924">
        <time>2015-05-13T00:18:25Z</time>
      </trkpt>
      <trkpt lat="48.04267" lon="5.15922">
        <time>2015-05-13T00:18:26Z</time>
      </trkpt>
      <trkpt lat="48.04226" lon="5.15895">
        <time>2015-05-13T00:18:32Z</time>
      </trkpt>
      <trkpt lat="48.04174" lon="5.15857">
        <time>2015-05-13T00:18:41Z</time>
      </trkpt>
      <trkpt lat="48.04145" lon="5.15839">
        <time>2015-05-13T00:18:45Z</time>
      </trkpt>
      <trkpt lat="48.04136" lon="5.15841">
        <time>2015-05-13T00:18:46Z</time>
      </trkpt>
      <trkpt lat="48.04123" lon="5.15854">
        <time>2015-05-13T00:18:49Z</time>
      </trkpt>
      <trkpt lat="48.04106" lon="5.15871">
        <time>2015-05-13T00:18:51Z</time>
      </trkpt>
      <trkpt lat="48.04069" lon="5.15894">
        <time>2015-05-13T00:18:57Z</time>
      </trkpt>
      <trkpt lat="48.04027" lon="5.15922">
        <time>2015-05-13T00:19:04Z</time>
      </trkpt>
      <trkpt lat="48.03998" lon="5.15937">
        <time>2015-05-13T00:19:08Z</time>
      </trkpt>
      <trkpt lat="48.03954" lon="5.15955">
        <time>2015-05-13T00:19:14Z</time>
      </trkpt>
      <trkpt lat="48.03937" lon="5.15954">
        <time>2015-05-13T00:19:17Z</time>
      </trkpt>
      <trkpt lat="48.03924" lon="5.15959">
        <time>2015-05-13T00:19:19Z</time>
      </trkpt>
      <trkpt lat="48.03906" lon="5.15959">
        <time>2015-05-13T00:19:21Z</time>
      </trkpt>
      <trkpt lat="48.03878" lon="5.15957">
        <time>2015-05-13T00:19:25Z</time>
      </trkpt>
      <trkpt lat="48.03826" lon="5.1596">
        <time>2015-05-13T00:19:32Z</time>
      </trkpt>
      <trkpt lat="48.03686" lon="5.15974">
        <time>2015-05-13T00:19:52Z</time>
      </trkpt>
      <trkpt lat="48.03649" lon="5.15977">
        <time>2015-05-13T00:19:57Z</time>
      </trkpt>
      <trkpt lat="48.03625" lon="5.15981">
        <time>2015-05-13T00:20:01Z</time>
      </trkpt>
      <trkpt lat="48.03593" lon="5.15994">
        <time>2015-05-13T00:20:06Z</time>
      </trkpt>
      <trkpt lat="48.03573" lon="5.16001">
        <time>2015-05-13T00:20:08Z</time>
      </trkpt>
      <trkpt lat="48.03553" lon="5.16001">
        <time>2015-05-13T00:20:11Z</time>
      </trkpt>
      <trkpt lat="48.03539" lon="5.15997">
        <time>2015-05-13T00:20:13Z</time>
      </trkpt>
      <trkpt lat="48.03498" lon="5.15977">
        <time>2015-05-13T00:20:19Z</time>
      </trkpt>
      <trkpt lat="48.0345" lon="5.15955">
        <time>2015-05-13T00:20:26Z</time>
      </trkpt>
      <trkpt lat="48.03408" lon="5.15945">
        <time>2015-05-13T00:20:32Z</time>
      </trkpt>
      <trkpt lat="48.03384" lon="5.15943">
        <time>2015-05-13T00:20:36Z</time>
      </trkpt>
      <trkpt lat="48.03354" lon="5.15948">
        <time>2015-05-13T00:20:40Z</time>
      </trkpt>
      <trkpt lat="48.03322" lon="5.15962">
        <time>2015-05-13T00:20:45Z</time>
      </trkpt>
      <trkpt lat="48.03293" lon="5.15983">
        <time>2015-05-13T00:20:49Z</time>
      </trkpt>
      <trkpt lat="48.03272" lon="5.16005">
        <time>2015-05-13T00:20:53Z</time>
      </trkpt>
      <trkpt lat="48.03253" lon="5.16033">
        <time>2015-05-13T00:20:57Z</time>
      </trkpt>
      <trkpt lat="48.03182" lon="5.16168">
        <time>2015-05-13T00:21:13Z</time>
      </trkpt>
      <trkpt lat="48.03159" lon="5.16208">
        <time>2015-05-13T00:21:18Z</time>
      </trkpt>
      <trkpt lat="48.03114" lon="5.16271">
        <time>2015-05-13T00:21:27Z</time>
      </trkpt>
      <trkpt lat="48.03088" lon="5.16303">
        <time>2015-05-13T00:21:31Z</time>
      </trkpt>
      <trkpt lat="48.03065" lon="5.16321">
        <time>2015-05-13T00:21:35Z</time>
      </trkpt>
      <trkpt lat="48.03023" lon="5.16342">
        <time>2015-05-13T00:21:41Z</time>
      </trkpt>
      <trkpt lat="48.0296" lon="5.16366">
        <time>2015-05-13T00:21:50Z</time>
      </trkpt>
      <trkpt lat="48.02933" lon="5.1637">
        <time>2015-05-13T00:21:54Z</time>
      </trkpt>
      <trkpt lat="48.02891" lon="5.16362">
        <time>2015-05-13T00:22:00Z</time>
      </trkpt>
      <trkpt lat="48.02844" lon="5.16345">
        <time>2015-05-13T00:22:07Z</time>
      </trkpt>
      <trkpt lat="48.02811" lon="5.16326">
        <time>2015-05-13T00:22:12Z</time>
      </trkpt>
      <trkpt lat="48.02756" lon="5.16286">
        <time>2015-05-13T00:22:21Z</time>
      </trkpt>
      <trkpt lat="48.02702" lon="5.16241">
        <time>2015-05-13T00:22:29Z</time>
      </trkpt>
      <trkpt lat="48.02702" lon="5.16241">
        <time>2015-05-13T00:22:29Z</time>
      </trkpt>
      <trkpt lat="48.02656" lon="5.16196">
        <time>2015-05-13T00:22:37Z</time>
      </trkpt>
      <trkpt lat="48.02623" lon="5.16153">
        <time>2015-05-13T00:22:43Z</time>
      </trkpt>
      <trkpt lat="48.02605" lon="5.16126">
        <time>2015-05-13T00:22:47Z</time>
      </trkpt>
      <trkpt lat="48.02603" lon="5.16131">
        <time>2015-05-13T00:22:47Z</time>
      </trkpt>
      <trkpt lat="48.02603" lon="5.16136">
        <time>2015-05-13T00:22:48Z</time>
      </trkpt>
      <trkpt lat="48.02604" lon="5.16144">
        <time>2015-05-13T00:22:49Z</time>
      </trkpt>
      <trkpt lat="48.02626" lon="5.16201">
        <time>2015-05-13T00:22:55Z</time>
      </trkpt>
      <trkpt lat="48.02614" lon="5.16201">
        <time>2015-05-13T00:22:57Z</time>
      </trkpt>
      <trkpt lat="48.02595" lon="5.16187">
        <time>2015-05-13T00:23:00Z</time>
      </trkpt>
      <trkpt lat="48.02564" lon="5.16177">
        <time>2015-05-13T00:23:04Z</time>
      </trkpt>
      <trkpt lat="48.02538" lon="5.16173">
        <time>2015-05-13T00:23:08Z</time>
      </trkpt>
      <trkpt lat="48.02526" lon="5.16175">
        <time>2015-05-13T00:23:09Z</time>
      </trkpt>
      <trkpt lat="48.02517" lon="5.16178">
        <time>2015-05-13T00:23:11Z</time>
      </trkpt>
      <trkpt lat="48.0251" lon="5.16183">
        <time>2015-05-13T00:23:12Z</time>
      </trkpt>
      <trkpt lat="48.02495" lon="5.16204">
        <time>2015-05-13T00:23:15Z</time>
      </trkpt>
      <trkpt lat="48.0248" lon="5.16237">
        <time>2015-05-13T00:23:18Z</time>
      </trkpt>
      <trkpt lat="48.02468" lon="5.1628">
        <time>2015-05-13T00:23:23Z</time>
      </trkpt>
      <trkpt lat="48.0243617" lon="5.1629342">
        <time>2015-05-13T00:23:28Z</time>
      </trkpt>
      <trkpt lat="48.024353" lon="5.1631329">
        <time>2015-05-13T00:23:29Z</time>
      </trkpt>
      <trkpt lat="48.024353" lon="5.1632187">
        <time>2015-05-13T00:23:30Z</time>
      </trkpt>
      <trkpt lat="48.0243269" lon="5.1634358">
        <time>2015-05-13T00:23:32Z</time>
      </trkpt>
      <trkpt lat="48.0245343" lon="5.1651329">
        <time>2015-05-13T00:23:49Z</time>
      </trkpt>
      <trkpt lat="48.0244682" lon="5.1660721">
        <time>2015-05-13T00:23:57Z</time>
      </trkpt>
      <trkpt lat="48.0242621" lon="5.1671758">
        <time>2015-05-13T00:24:08Z</time>
      </trkpt>
      <trkpt lat="48.0240598" lon="5.1679721">
        <time>2015-05-13T00:24:16Z</time>
      </trkpt>
      <trkpt lat="48.0237672" lon="5.1694492">
        <time>2015-05-13T00:24:31Z</time>
      </trkpt>
      <trkpt lat="48.0233428" lon="5.1699662">
        <time>2015-05-13T00:24:39Z</time>
      </trkpt>
      <trkpt lat="48.0226639" lon="5.1706525">
        <time>2015-05-13T00:24:50Z</time>
      </trkpt>
      <trkpt lat="48.0221277" lon="5.1712179">
        <time>2015-05-13T00:24:59Z</time>
      </trkpt>
      <trkpt lat="48.0216962" lon="5.1716704">
        <time>2015-05-13T00:25:07Z</time>
      </trkpt>
      <trkpt lat="48.0216701" lon="5.1725571">
        <time>2015-05-13T00:25:15Z</time>
      </trkpt>
      <trkpt lat="48.0223154" lon="5.1732291">
        <time>2015-05-13T00:25:26Z</time>
      </trkpt>
      <trkpt lat="48.024335" lon="5.1739695">
        <time>2015-05-13T00:25:56Z</time>
      </trkpt>
      <trkpt lat="48.0250608" lon="5.1741904">
        <time>2015-05-13T00:26:06Z</time>
      </trkpt>
      <trkpt lat="48.0259104" lon="5.1744979">
        <time>2015-05-13T00:26:18Z</time>
      </trkpt>
      <trkpt lat="48.0264539" lon="5.17471">
        <time>2015-05-13T00:26:26Z</time>
      </trkpt>
      <trkpt lat="48.02664" lon="5.17491">
        <time>2015-05-13T00:26:30Z</time>
      </trkpt>
      <trkpt lat="48.02667" lon="5.17504">
        <time>2015-05-13T00:26:31Z</time>
      </trkpt>
      <trkpt lat="48.02683" lon="5.17535">
        <time>2015-05-13T00:26:35Z</time>
      </trkpt>
      <trkpt lat="48.02722" lon="5.17646">
        <time>2015-05-13T00:26:46Z</time>
      </trkpt>
      <trkpt lat="48.02758" lon="5.17762">
        <time>2015-05-13T00:26:58Z</time>
      </trkpt>
      <trkpt lat="48.02767" lon="5.1781">
        <time>2015-05-13T00:27:03Z</time>
      </trkpt>
      <trkpt lat="48.02774" lon="5.17876">
        <time>2015-05-13T00:27:09Z</time>
      </trkpt>
      <trkpt lat="48.02783" lon="5.17939">
        <time>2015-05-13T00:27:16Z</time>
      </trkpt>
      <trkpt lat="48.02794" lon="5.17985">
        <time>2015-05-13T00:27:20Z</time>
      </trkpt>
      <trkpt lat="48.0281" lon="5.18034">
        <time>2015-05-13T00:27:25Z</time>
      </trkpt>
      <trkpt lat="48.02821" lon="5.18075">
        <time>2015-05-13T00:27:29Z</time>
      </trkpt>
      <trkpt lat="48.02838" lon="5.18171">
        <time>2015-05-13T00:27:39Z</time>
      </trkpt>
      <trkpt lat="48.02852" lon="5.18288">
        <time>2015-05-13T00:27:50Z</time>
      </trkpt>
      <trkpt lat="48.02866" lon="5.18376">
        <time>2015-05-13T00:27:59Z</time>
      </trkpt>
      <trkpt lat="48.02879" lon="5.18476">
        <time>2015-05-13T00:28:08Z</time>
      </trkpt>
      <trkpt lat="48.02883" lon="5.18544">
        <time>2015-05-13T00:28:15Z</time>
      </trkpt>
      <trkpt lat="48.02872" lon="5.18668">
        <time>2015-05-13T00:28:26Z</time>
      </trkpt>
      <trkpt lat="48.02872" lon="5.18668">
        <time>2015-05-13T00:28:26Z</time>
      </trkpt>
      <trkpt lat="48.02871" lon="5.18691">
        <time>2015-05-13T00:28:29Z</time>
      </trkpt>
      <trkpt lat="48.02874" lon="5.18721">
        <time>2015-05-13T00:28:31Z</time>
      </trkpt>
      <trkpt lat="48.02908" lon="5.18938">
        <time>2015-05-13T00:28:52Z</time>
      </trkpt>
      <trkpt lat="48.02918" lon="5.19">
        <time>2015-05-13T00:28:58Z</time>
      </trkpt>
      <trkpt lat="48.02943" lon="5.19098">
        <time>2015-05-13T00:29:08Z</time>
      </trkpt>
      <trkpt lat="48.02994" lon="5.19287">
        <time>2015-05-13T00:29:28Z</time>
      </trkpt>
      <trkpt lat="48.03021" lon="5.19369">
        <time>2015-05-13T00:29:36Z</time>
      </trkpt>
      <trkpt lat="48.03045" lon="5.19422">
        <time>2015-05-13T00:29:42Z</time>
      </trkpt>
      <trkpt lat="48.03067" lon="5.19465">
        <time>2015-05-13T00:29:47Z</time>
      </trkpt>
      <trkpt lat="48.0311" lon="5.19534">
        <time>2015-05-13T00:29:56Z</time>
      </trkpt>
      <trkpt lat="48.0314" lon="5.19574">
        <time>2015-05-13T00:30:02Z</time>
      </trkpt>
      <trkpt lat="48.03166" lon="5.19604">
        <time>2015-05-13T00:30:07Z</time>
      </trkpt>
      <trkpt lat="48.0323" lon="5.19675">
        <time>2015-05-13T00:30:18Z</time>
      </trkpt>
      <trkpt lat="48.03258" lon="5.19712">
        <time>2015-05-13T00:30:23Z</time>
      </trkpt>
      <trkpt lat="48.03273" lon="5.19738">
        <time>2015-05-13T00:30:26Z</time>
      </trkpt>
      <trkpt lat="48.033" lon="5.19793">
        <time>2015-05-13T00:30:33Z</time>
      </trkpt>
      <trkpt lat="48.03323" lon="5.19862">
        <time>2015-05-13T00:30:40Z</time>
      </trkpt>
      <trkpt lat="48.03344" lon="5.19951">
        <time>2015-05-13T00:30:49Z</time>
      </trkpt>
      <trkpt lat="48.03353" lon="5.19978">
        <time>2015-05-13T00:30:52Z</time>
      </trkpt>
      <trkpt lat="48.03378" lon="5.20034">
        <time>2015-05-13T00:30:58Z</time>
      </trkpt>
      <trkpt lat="48.03406" lon="5.20078">
        <time>2015-05-13T00:31:04Z</time>
      </trkpt>
      <trkpt lat="48.03434" lon="5.2011">
        <time>2015-05-13T00:31:09Z</time>
      </trkpt>
      <trkpt lat="48.03598" lon="5.20266">
        <time>2015-05-13T00:31:36Z</time>
      </trkpt>
      <trkpt lat="48.03677" lon="5.20341">
        <time>2015-05-13T00:31:49Z</time>
      </trkpt>
      <trkpt lat="48.03703" lon="5.20361">
        <time>2015-05-13T00:31:54Z</time>
      </trkpt>
      <trkpt lat="48.03721" lon="5.20372">
        <time>2015-05-13T00:31:56Z</time>
      </trkpt>
      <trkpt lat="48.03743" lon="5.2038">
        <time>2015-05-13T00:31:59Z</time>
      </trkpt>
      <trkpt lat="48.03764" lon="5.20386">
        <time>2015-05-13T00:32:03Z</time>
      </trkpt>
      <trkpt lat="48.0379" lon="5.20389">
        <time>2015-05-13T00:32:06Z</time>
      </trkpt>
      <trkpt lat="48.03801" lon="5.20393">
        <time>2015-05-13T00:32:08Z</time>
      </trkpt>
      <trkpt lat="48.03807" lon="5.20401">
        <time>2015-05-13T00:32:09Z</time>
      </trkpt>
      <trkpt lat="48.03811" lon="5.20414">
        <time>2015-05-13T00:32:10Z</time>
      </trkpt>
      <trkpt lat="48.03812" lon="5.20428">
        <time>2015-05-13T00:32:12Z</time>
      </trkpt>
      <trkpt lat="48.03804" lon="5.20447">
        <time>2015-05-13T00:32:14Z</time>
      </trkpt>
      <trkpt lat="48.03795" lon="5.20462">
        <time>2015-05-13T00:32:16Z</time>
      </trkpt>
      <trkpt lat="48.03778" lon="5.20494">
        <time>2015-05-13T00:32:19Z</time>
      </trkpt>
      <trkpt lat="48.03774" lon="5.20516">
        <time>2015-05-13T00:32:22Z</time>
      </trkpt>
      <trkpt lat="48.03775" lon="5.20534">
        <time>2015-05-13T00:32:23Z</time>
      </trkpt>
      <trkpt lat="48.03783" lon="5.20555">
        <time>2015-05-13T00:32:26Z</time>
      </trkpt>
      <trkpt lat="48.03827" lon="5.20625">
        <time>2015-05-13T00:32:35Z</time>
      </trkpt>
      <trkpt lat="48.03858" lon="5.20676">
        <time>2015-05-13T00:32:41Z</time>
      </trkpt>
      <trkpt lat="48.03871" lon="5.20711">
        <time>2015-05-13T00:32:45Z</time>
      </trkpt>
      <trkpt lat="48.03875" lon="5.20729">
        <time>2015-05-13T00:32:47Z</time>
      </trkpt>
      <trkpt lat="48.03879" lon="5.20769">
        <time>2015-05-13T00:32:51Z</time>
      </trkpt>
      <trkpt lat="48.03879" lon="5.2084">
        <time>2015-05-13T00:32:57Z</time>
      </trkpt>
      <trkpt lat="48.03874" lon="5.20945">
        <time>2015-05-13T00:33:07Z</time>
      </trkpt>
      <trkpt lat="48.03867" lon="5.21007">
        <time>2015-05-13T00:33:13Z</time>
      </trkpt>
      <trkpt lat="48.03857" lon="5.21081">
        <time>2015-05-13T00:33:20Z</time>
      </trkpt>
      <trkpt lat="48.03854" lon="5.21116">
        <time>2015-05-13T00:33:24Z</time>
      </trkpt>
      <trkpt lat="48.03849" lon="5.21155">
        <time>2015-05-13T00:33:27Z</time>
      </trkpt>
      <trkpt lat="48.03846" lon="5.21165">
        <time>2015-05-13T00:33:28Z</time>
      </trkpt>
      <trkpt lat="48.03846" lon="5.21165">
        <time>2015-05-13T00:33:28Z</time>
      </trkpt>
      <trkpt lat="48.03843" lon="5.21171">
        <time>2015-05-13T00:33:29Z</time>
      </trkpt>
      <trkpt lat="48.038" lon="5.21222">
        <time>2015-05-13T00:33:37Z</time>
      </trkpt>
      <trkpt lat="48.0379" lon="5.2124">
        <time>2015-05-13T00:33:39Z</time>
      </trkpt>
      <trkpt lat="48.03787" lon="5.21251">
        <time>2015-05-13T00:33:40Z</time>
      </trkpt>
      <trkpt lat="48.03786" lon="5.21271">
        <time>2015-05-13T00:33:42Z</time>
      </trkpt>
      <trkpt lat="48.03805" lon="5.21437">
        <time>2015-05-13T00:33:58Z</time>
      </trkpt>
      <trkpt lat="48.03813" lon="5.21486">
        <time>2015-05-13T00:34:03Z</time>
      </trkpt>
      <trkpt lat="48.03792" lon="5.21542">
        <time>2015-05-13T00:34:09Z</time>
      </trkpt>
      <trkpt lat="48.03773" lon="5.21594">
        <time>2015-05-13T00:34:14Z</time>
      </trkpt>
      <trkpt lat="48.03739" lon="5.21656">
        <time>2015-05-13T00:34:22Z</time>
      </trkpt>
      <trkpt lat="48.03625" lon="5.21851">
        <time>2015-05-13T00:34:46Z</time>
      </trkpt>
      <trkpt lat="48.03613" lon="5.21872">
        <time>2015-05-13T00:34:49Z</time>
      </trkpt>
      <trkpt lat="48.03611" lon="5.2188">
        <time>2015-05-13T00:34:50Z</time>
      </trkpt>
      <trkpt lat="48.03595" lon="5.21922">
        <time>2015-05-13T00:34:54Z</time>
      </trkpt>
      <trkpt lat="48.03588" lon="5.21954">
        <time>2015-05-13T00:34:57Z</time>
      </trkpt>
      <trkpt lat="48.03585" lon="5.22009">
        <time>2015-05-13T00:35:03Z</time>
      </trkpt>
      <trkpt lat="48.03585" lon="5.22163">
        <time>2015-05-13T00:35:17Z</time>
      </trkpt>
      <trkpt lat="48.03583" lon="5.22204">
        <time>2015-05-13T00:35:21Z</time>
      </trkpt>
      <trkpt lat="48.03579" lon="5.22237">
        <time>2015-05-13T00:35:24Z</time>
      </trkpt>
      <trkpt lat="48.03588" lon="5.22247">
        <time>2015-05-13T00:35:26Z</time>
      </trkpt>
      <trkpt lat="48.03596" lon="5.22263">
        <time>2015-05-13T00:35:28Z</time>
      </trkpt>
      <trkpt lat="48.03613" lon="5.22289">
        <time>2015-05-13T00:35:31Z</time>
      </trkpt>
      <trkpt lat="48.03621" lon="5.22297">
        <time>2015-05-13T00:35:32Z</time>
      </trkpt>
      <trkpt lat="48.03638" lon="5.22313">
        <time>2015-05-13T00:35:35Z</time>
      </trkpt>
      <trkpt lat="48.03667" lon="5.22345">
        <time>2015-05-13T00:35:40Z</time>
      </trkpt>
      <trkpt lat="48.03687" lon="5.2238">
        <time>2015-05-13T00:35:45Z</time>
      </trkpt>
      <trkpt lat="48.037" lon="5.22416">
        <time>2015-05-13T00:35:49Z</time>
      </trkpt>
      <trkpt lat="48.03707" lon="5.22457">
        <time>2015-05-13T00:35:53Z</time>
      </trkpt>
      <trkpt lat="48.03711" lon="5.22527">
        <time>2015-05-13T00:35:59Z</time>
      </trkpt>
      <trkpt lat="48.03722" lon="5.2274">
        <time>2015-05-13T00:36:19Z</time>
      </trkpt>
      <trkpt lat="48.03735" lon="5.22857">
        <time>2015-05-13T00:36:31Z</time>
      </trkpt>
      <trkpt lat="48.03751" lon="5.22953">
        <time>2015-05-13T00:36:40Z</time>
      </trkpt>
      <trkpt lat="48.03762" lon="5.23007">
        <time>2015-05-13T00:36:45Z</time>
      </trkpt>
      <trkpt lat="48.03816" lon="5.23231">
        <time>2015-05-13T00:37:08Z</time>
      </trkpt>
      <trkpt lat="48.03846" lon="5.23334">
        <time>2015-05-13T00:37:18Z</time>
      </trkpt>
      <trkpt lat="48.03872" lon="5.23398">
        <time>2015-05-13T00:37:25Z</time>
      </trkpt>
      <trkpt lat="48.03901" lon="5.23463">
        <time>2015-05-13T00:37:33Z</time>
      </trkpt>
      <trkpt lat="48.03926" lon="5.23516">
        <time>2015-05-13T00:37:39Z</time>
      </trkpt>
      <trkpt lat="48.03958" lon="5.2357">
        <time>2015-05-13T00:37:46Z</time>
      </trkpt>
      <trkpt lat="48.03981" lon="5.23613">
        <time>2015-05-13T00:37:51Z</time>
      </trkpt>
      <trkpt lat="48.03993" lon="5.23639">
        <time>2015-05-13T00:37:54Z</time>
      </trkpt>
      <trkpt lat="48.03998" lon="5.23658">
        <time>2015-05-13T00:37:56Z</time>
      </trkpt>
      <trkpt lat="48.04002" lon="5.23679">
        <time>2015-05-13T00:37:58Z</time>
      </trkpt>
      <trkpt lat="48.04003" lon="5.23698">
        <time>2015-05-13T00:38:00Z</time>
      </trkpt>
      <trkpt lat="48.04002" lon="5.23716">
        <time>2015-05-13T00:38:01Z</time>
      </trkpt>
      <trkpt lat="48.03999" lon="5.23735">
        <time>2015-05-13T00:38:03Z</time>
      </trkpt>
      <trkpt lat="48.03992" lon="5.23759">
        <time>2015-05-13T00:38:06Z</time>
      </trkpt>
      <trkpt lat="48.03969" lon="5.23817">
        <time>2015-05-13T00:38:12Z</time>
      </trkpt>
      <trkpt lat="48.03958" lon="5.23857">
        <time>2015-05-13T00:38:16Z</time>
      </trkpt>
      <trkpt lat="48.0395" lon="5.23907">
        <time>2015-05-13T00:38:21Z</time>
      </trkpt>
      <trkpt lat="48.03946" lon="5.23946">
        <time>2015-05-13T00:38:25Z</time>
      </trkpt>
      <trkpt lat="48.03947" lon="5.23989">
        <time>2015-05-13T00:38:29Z</time>
      </trkpt>
      <trkpt lat="48.0395" lon="5.24029">
        <time>2015-05-13T00:38:32Z</time>
      </trkpt>
      <trkpt lat="48.0397" lon="5.2416">
        <time>2015-05-13T00:38:45Z</time>
      </trkpt>
      <trkpt lat="48.03981" lon="5.24245">
        <time>2015-05-13T00:38:53Z</time>
      </trkpt>
      <trkpt lat="48.03987" lon="5.24302">
        <time>2015-05-13T00:38:59Z</time>
      </trkpt>
      <trkpt lat="48.03987" lon="5.24355">
        <time>2015-05-13T00:39:04Z</time>
      </trkpt>
      <trkpt lat="48.03983" lon="5.24394">
        <time>2015-05-13T00:39:07Z</time>
      </trkpt>
      <trkpt lat="48.03977" lon="5.24435">
        <time>2015-05-13T00:39:11Z</time>
      </trkpt>
      <trkpt lat="48.03971" lon="5.24461">
        <time>2015-05-13T00:39:14Z</time>
      </trkpt>
      <trkpt lat="48.03945" lon="5.24524">
        <time>2015-05-13T00:39:21Z</time>
      </trkpt>
      <trkpt lat="48.03937" lon="5.24549">
        <time>2015-05-13T00:39:24Z</time>
      </trkpt>
      <trkpt lat="48.03935" lon="5.24575">
        <time>2015-05-13T00:39:26Z</time>
      </trkpt>
      <trkpt lat="48.03937" lon="5.24602">
        <time>2015-05-13T00:39:29Z</time>
      </trkpt>
      <trkpt lat="48.0395" lon="5.24633">
        <time>2015-05-13T00:39:32Z</time>
      </trkpt>
      <trkpt lat="48.03967" lon="5.24651">
        <time>2015-05-13T00:39:35Z</time>
      </trkpt>
      <trkpt lat="48.03983" lon="5.24656">
        <time>2015-05-13T00:39:37Z</time>
      </trkpt>
      <trkpt lat="48.04018" lon="5.24651">
        <time>2015-05-13T00:39:42Z</time>
      </trkpt>
      <trkpt lat="48.04058" lon="5.24641">
        <time>2015-05-13T00:39:48Z</time>
      </trkpt>
      <trkpt lat="48.04072" lon="5.24637">
        <time>2015-05-13T00:39:50Z</time>
      </trkpt>
      <trkpt lat="48.04087" lon="5.24637">
        <time>2015-05-13T00:39:52Z</time>
      </trkpt>
      <trkpt lat="48.04102" lon="5.24639">
        <time>2015-05-13T00:39:54Z</time>
      </trkpt>
      <trkpt lat="48.04112" lon="5.24643">
        <time>2015-05-13T00:39:56Z</time>
      </trkpt>
      <trkpt lat="48.04135" lon="5.24662">
        <time>2015-05-13T00:39:59Z</time>
      </trkpt>
      <trkpt lat="48.04153" lon="5.24688">
        <time>2015-05-13T00:40:03Z</time>
      </trkpt>
      <trkpt lat="48.04166" lon="5.24719">
        <time>2015-05-13T00:40:06Z</time>
      </trkpt>
      <trkpt lat="48.04176" lon="5.24754">
        <time>2015-05-13T00:40:10Z</time>
      </trkpt>
      <trkpt lat="48.04188" lon="5.24816">
        <time>2015-05-13T00:40:16Z</time>
      </trkpt>
      <trkpt lat="48.04201" lon="5.24901">
        <time>2015-05-13T00:40:24Z</time>
      </trkpt>
      <trkpt lat="48.0421" lon="5.24952">
        <time>2015-05-13T00:40:29Z</time>
      </trkpt>
      <trkpt lat="48.04226" lon="5.25011">
        <time>2015-05-13T00:40:35Z</time>
      </trkpt>
      <trkpt lat="48.04231" lon="5.25045">
        <time>2015-05-13T00:40:39Z</time>
      </trkpt>
      <trkpt lat="48.04231" lon="5.25073">
        <time>2015-05-13T00:40:41Z</time>
      </trkpt>
      <trkpt lat="48.04229" lon="5.25096">
        <time>2015-05-13T00:40:43Z</time>
      </trkpt>
      <trkpt lat="48.04221" lon="5.25131">
        <time>2015-05-13T00:40:47Z</time>
      </trkpt>
      <trkpt lat="48.04208" lon="5.25166">
        <time>2015-05-13T00:40:51Z</time>
      </trkpt>
      <trkpt lat="48.0419" lon="5.25195">
        <time>2015-05-13T00:40:54Z</time>
      </trkpt>
      <trkpt lat="48.04178" lon="5.25207">
        <time>2015-05-13T00:40:56Z</time>
      </trkpt>
      <trkpt lat="48.04161" lon="5.25221">
        <time>2015-05-13T00:40:59Z</time>
      </trkpt>
      <trkpt lat="48.04079" lon="5.2527">
        <time>2015-05-13T00:41:12Z</time>
      </trkpt>
      <trkpt lat="48.0404" lon="5.2529">
        <time>2015-05-13T00:41:17Z</time>
      </trkpt>
      <trkpt lat="48.04029" lon="5.25295">
        <time>2015-05-13T00:41:19Z</time>
      </trkpt>
      <trkpt lat="48.04012" lon="5.25298">
        <time>2015-05-13T00:41:21Z</time>
      </trkpt>
      <trkpt lat="48.03989" lon="5.253">
        <time>2015-05-13T00:41:25Z</time>
      </trkpt>
      <trkpt lat="48.03943" lon="5.25302">
        <time>2015-05-13T00:41:31Z</time>
      </trkpt>
      <trkpt lat="48.03933" lon="5.25306">
        <time>2015-05-13T00:41:33Z</time>
      </trkpt>
      <trkpt lat="48.03912" lon="5.25321">
        <time>2015-05-13T00:41:36Z</time>
      </trkpt>
      <trkpt lat="48.03893" lon="5.25341">
        <time>2015-05-13T00:41:39Z</time>
      </trkpt>
      <trkpt lat="48.03873" lon="5.2537">
        <time>2015-05-13T00:41:43Z</time>
      </trkpt>
      <trkpt lat="48.03857" lon="5.25396">
        <time>2015-05-13T00:41:46Z</time>
      </trkpt>
      <trkpt lat="48.0383" lon="5.25445">
        <time>2015-05-13T00:41:52Z</time>
      </trkpt>
      <trkpt lat="48.03819" lon="5.25476">
        <time>2015-05-13T00:41:56Z</time>
      </trkpt>
      <trkpt lat="48.03813" lon="5.25498">
        <time>2015-05-13T00:41:58Z</time>
      </trkpt>
      <trkpt lat="48.0381" lon="5.2552">
        <time>2015-05-13T00:42:00Z</time>
      </trkpt>
      <trkpt lat="48.03809" lon="5.25561">
        <time>2015-05-13T00:42:04Z</time>
      </trkpt>
      <trkpt lat="48.03814" lon="5.2561">
        <time>2015-05-13T00:42:09Z</time>
      </trkpt>
      <trkpt lat="48.03818" lon="5.25628">
        <time>2015-05-13T00:42:10Z</time>
      </trkpt>
      <trkpt lat="48.0383" lon="5.2566">
        <time>2015-05-13T00:42:14Z</time>
      </trkpt>
      <trkpt lat="48.03849" lon="5.25695">
        <time>2015-05-13T00:42:18Z</time>
      </trkpt>
      <trkpt lat="48.03866" lon="5.25722">
        <time>2015-05-13T00:42:22Z</time>
      </trkpt>
      <trkpt lat="48.03911" lon="5.25774">
        <time>2015-05-13T00:42:30Z</time>
      </trkpt>
      <trkpt lat="48.03922" lon="5.25791">
        <time>2015-05-13T00:42:32Z</time>
      </trkpt>
      <trkpt lat="48.03929" lon="5.2581">
        <time>2015-05-13T00:42:34Z</time>
      </trkpt>
      <trkpt lat="48.03935" lon="5.25827">
        <time>2015-05-13T00:42:36Z</time>
      </trkpt>
      <trkpt lat="48.03938" lon="5.25844">
        <time>2015-05-13T00:42:37Z</time>
      </trkpt>
      <trkpt lat="48.0394" lon="5.2588">
        <time>2015-05-13T00:42:41Z</time>
      </trkpt>
      <trkpt lat="48.03939" lon="5.25919">
        <time>2015-05-13T00:42:44Z</time>
      </trkpt>
      <trkpt lat="48.03932" lon="5.25968">
        <time>2015-05-13T00:42:49Z</time>
      </trkpt>
      <trkpt lat="48.03927" lon="5.25992">
        <time>2015-05-13T00:42:52Z</time>
      </trkpt>
      <trkpt lat="48.03916" lon="5.2602">
        <time>2015-05-13T00:42:55Z</time>
      </trkpt>
      <trkpt lat="48.03875" lon="5.26119">
        <time>2015-05-13T00:43:06Z</time>
      </trkpt>
      <trkpt lat="48.03864" lon="5.26171">
        <time>2015-05-13T00:43:11Z</time>
      </trkpt>
      <trkpt lat="48.03855" lon="5.26226">
        <time>2015-05-13T00:43:16Z</time>
      </trkpt>
      <trkpt lat="48.03852" lon="5.2627">
        <time>2015-05-13T00:43:20Z</time>
      </trkpt>
      <trkpt lat="48.03848" lon="5.26339">
        <time>2015-05-13T00:43:27Z</time>
      </trkpt>
      <trkpt lat="48.0385" lon="5.26397">
        <time>2015-05-13T00:43:32Z</time>
      </trkpt>
      <trkpt lat="48.03855" lon="5.26476">
        <time>2015-05-13T00:43:40Z</time>
      </trkpt>
      <trkpt lat="48.03864" lon="5.26556">
        <time>2015-05-13T00:43:47Z</time>
      </trkpt>
      <trkpt lat="48.03878" lon="5.26643">
        <time>2015-05-13T00:43:56Z</time>
      </trkpt>
      <trkpt lat="48.0389" lon="5.2672">
        <time>2015-05-13T00:44:03Z</time>
      </trkpt>
      <trkpt lat="48.03894" lon="5.26759">
        <time>2015-05-13T00:44:07Z</time>
      </trkpt>
      <trkpt lat="48.03899" lon="5.26817">
        <time>2015-05-13T00:44:13Z</time>
      </trkpt>
      <trkpt lat="48.03906" lon="5.26859">
        <time>2015-05-13T00:44:17Z</time>
      </trkpt>
      <trkpt lat="48.03944" lon="5.26988">
        <time>2015-05-13T00:44:30Z</time>
      </trkpt>
      <trkpt lat="48.03969" lon="5.27082">
        <time>2015-05-13T00:44:39Z</time>
      </trkpt>
      <trkpt lat="48.03974" lon="5.27123">
        <time>2015-05-13T00:44:43Z</time>
      </trkpt>
      <trkpt lat="48.03976" lon="5.27158">
        <time>2015-05-13T00:44:47Z</time>
      </trkpt>
      <trkpt lat="48.03973" lon="5.27194">
        <time>2015-05-13T00:44:50Z</time>
      </trkpt>
      <trkpt lat="48.03935" lon="5.27395">
        <time>2015-05-13T00:45:10Z</time>
      </trkpt>
      <trkpt lat="48.0391" lon="5.27536">
        <time>2015-05-13T00:45:24Z</time>
      </trkpt>
      <trkpt lat="48.03905" lon="5.2758">
        <time>2015-05-13T00:45:28Z</time>
      </trkpt>
      <trkpt lat="48.03904" lon="5.27639">
        <time>2015-05-13T00:45:33Z</time>
      </trkpt>
      <trkpt lat="48.03907" lon="5.2767">
        <time>2015-05-13T00:45:36Z</time>
      </trkpt>
      <trkpt lat="48.03914" lon="5.27702">
        <time>2015-05-13T00:45:40Z</time>
      </trkpt>
      <trkpt lat="48.03971" lon="5.27887">
        <time>2015-05-13T00:45:59Z</time>
      </trkpt>
      <trkpt lat="48.03987" lon="5.27956">
        <time>2015-05-13T00:46:06Z</time>
      </trkpt>
      <trkpt lat="48.03993" lon="5.27989">
        <time>2015-05-13T00:46:09Z</time>
      </trkpt>
      <trkpt lat="48.03996" lon="5.28028">
        <time>2015-05-13T00:46:13Z</time>
      </trkpt>
      <trkpt lat="48.03998" lon="5.28071">
        <time>2015-05-13T00:46:17Z</time>
      </trkpt>
      <trkpt lat="48.03995" lon="5.28119">
        <time>2015-05-13T00:46:21Z</time>
      </trkpt>
      <trkpt lat="48.03982" lon="5.28214">
        <time>2015-05-13T00:46:30Z</time>
      </trkpt>
      <trkpt lat="48.03967" lon="5.28312">
        <time>2015-05-13T00:46:40Z</time>
      </trkpt>
      <trkpt lat="48.03956" lon="5.28396">
        <time>2015-05-13T00:46:48Z</time>
      </trkpt>
      <trkpt lat="48.03954" lon="5.28427">
        <time>2015-05-13T00:46:51Z</time>
      </trkpt>
      <trkpt lat="48.03954" lon="5.28458">
        <time>2015-05-13T00:46:54Z</time>
      </trkpt>
      <trkpt lat="48.0396" lon="5.28506">
        <time>2015-05-13T00:46:58Z</time>
      </trkpt>
      <trkpt lat="48.03993" lon="5.28691">
        <time>2015-05-13T00:47:16Z</time>
      </trkpt>
      <trkpt lat="48.03999" lon="5.28762">
        <time>2015-05-13T00:47:23Z</time>
      </trkpt>
      <trkpt lat="48.04003" lon="5.2883">
        <time>2015-05-13T00:47:30Z</time>
      </trkpt>
      <trkpt lat="48.04004" lon="5.28879">
        <time>2015-05-13T00:47:34Z</time>
      </trkpt>
      <trkpt lat="48.04" lon="5.28928">
        <time>2015-05-13T00:47:39Z</time>
      </trkpt>
      <trkpt lat="48.03989" lon="5.29003">
        <time>2015-05-13T00:47:46Z</time>
      </trkpt>
      <trkpt lat="48.03989" lon="5.29003">
        <time>2015-05-13T00:47:46Z</time>
      </trkpt>
      <trkpt lat="48.03977" lon="5.29084">
        <time>2015-05-13T00:47:54Z</time>
      </trkpt>
      <trkpt lat="48.0397" lon="5.2916">
        <time>2015-05-13T00:48:01Z</time>
      </trkpt>
      <trkpt lat="48.03964" lon="5.29243">
        <time>2015-05-13T00:48:09Z</time>
      </trkpt>
      <trkpt lat="48.03962" lon="5.2931">
        <time>2015-05-13T00:48:15Z</time>
      </trkpt>
      <trkpt lat="48.03961" lon="5.29419">
        <time>2015-05-13T00:48:26Z</time>
      </trkpt>
      <trkpt lat="48.03961" lon="5.2948">
        <time>2015-05-13T00:48:31Z</time>
      </trkpt>
      <trkpt lat="48.03965" lon="5.29526">
        <time>2015-05-13T00:48:36Z</time>
      </trkpt>
      <trkpt lat="48.03985" lon="5.29619">
        <time>2015-05-13T00:48:45Z</time>
      </trkpt>
      <trkpt lat="48.04016" lon="5.29782">
        <time>2015-05-13T00:49:01Z</time>
      </trkpt>
      <trkpt lat="48.04025" lon="5.29825">
        <time>2015-05-13T00:49:05Z</time>
      </trkpt>
      <trkpt lat="48.04042" lon="5.29879">
        <time>2015-05-13T00:49:11Z</time>
      </trkpt>
      <trkpt lat="48.04081" lon="5.30004">
        <time>2015-05-13T00:49:24Z</time>
      </trkpt>
      <trkpt lat="48.04095" lon="5.30084">
        <time>2015-05-13T00:49:32Z</time>
      </trkpt>
      <trkpt lat="48.04095" lon="5.30136">
        <time>2015-05-13T00:49:37Z</time>
      </trkpt>
      <trkpt lat="48.04092" lon="5.30165">
        <time>2015-05-13T00:49:39Z</time>
      </trkpt>
      <trkpt lat="48.04078" lon="5.30223">
        <time>2015-05-13T00:49:45Z</time>
      </trkpt>
      <trkpt lat="48.04062" lon="5.30268">
        <time>2015-05-13T00:49:50Z</time>
      </trkpt>
      <trkpt lat="48.04044" lon="5.30309">
        <time>2015-05-13T00:49:55Z</time>
      </trkpt>
      <trkpt lat="48.03999" lon="5.30402">
        <time>2015-05-13T00:50:05Z</time>
      </trkpt>
      <trkpt lat="48.03956" lon="5.30489">
        <time>2015-05-13T00:50:16Z</time>
      </trkpt>
      <trkpt lat="48.03929" lon="5.30556">
        <time>2015-05-13T00:50:23Z</time>
      </trkpt>
      <trkpt lat="48.0392" lon="5.30583">
        <time>2015-05-13T00:50:26Z</time>
      </trkpt>
      <trkpt lat="48.03912" lon="5.3063">
        <time>2015-05-13T00:50:30Z</time>
      </trkpt>
      <trkpt lat="48.0391" lon="5.30668">
        <time>2015-05-13T00:50:34Z</time>
      </trkpt>
      <trkpt lat="48.03912" lon="5.30728">
        <time>2015-05-13T00:50:40Z</time>
      </trkpt>
      <trkpt lat="48.03921" lon="5.30799">
        <time>2015-05-13T00:50:46Z</time>
      </trkpt>
      <trkpt lat="48.03927" lon="5.3085">
        <time>2015-05-13T00:50:51Z</time>
      </trkpt>
      <trkpt lat="48.03928" lon="5.3088">
        <time>2015-05-13T00:50:54Z</time>
      </trkpt>
      <trkpt lat="48.03926" lon="5.30921">
        <time>2015-05-13T00:50:58Z</time>
      </trkpt>
      <trkpt lat="48.03917" lon="5.30985">
        <time>2015-05-13T00:51:04Z</time>
      </trkpt>
      <trkpt lat="48.03905" lon="5.31043">
        <time>2015-05-13T00:51:10Z</time>
      </trkpt>
      <trkpt lat="48.03881" lon="5.31107">
        <time>2015-05-13T00:51:17Z</time>
      </trkpt>
      <trkpt lat="48.03847" lon="5.3117">
        <time>2015-05-13T00:51:24Z</time>
      </trkpt>
      <trkpt lat="48.03806" lon="5.31236">
        <time>2015-05-13T00:51:33Z</time>
      </trkpt>
      <trkpt lat="48.03764" lon="5.31298">
        <time>2015-05-13T00:51:41Z</time>
      </trkpt>
      <trkpt lat="48.03711" lon="5.31362">
        <time>2015-05-13T00:51:51Z</time>
      </trkpt>
      <trkpt lat="48.03621" lon="5.31431">
        <time>2015-05-13T00:52:05Z</time>
      </trkpt>
      <trkpt lat="48.03541" lon="5.31491">
        <time>2015-05-13T00:52:18Z</time>
      </trkpt>
      <trkpt lat="48.03467" lon="5.31551">
        <time>2015-05-13T00:52:30Z</time>
      </trkpt>
      <trkpt lat="48.03418" lon="5.31605">
        <time>2015-05-13T00:52:38Z</time>
      </trkpt>
      <trkpt lat="48.03361" lon="5.31672">
        <time>2015-05-13T00:52:48Z</time>
      </trkpt>
      <trkpt lat="48.03159" lon="5.31905">
        <time>2015-05-13T00:53:24Z</time>
      </trkpt>
      <trkpt lat="48.02997" lon="5.32088">
        <time>2015-05-13T00:53:53Z</time>
      </trkpt>
      <trkpt lat="48.02964" lon="5.32128">
        <time>2015-05-13T00:53:59Z</time>
      </trkpt>
      <trkpt lat="48.02952" lon="5.32145">
        <time>2015-05-13T00:54:01Z</time>
      </trkpt>
      <trkpt lat="48.02913" lon="5.32219">
        <time>2015-05-13T00:54:10Z</time>
      </trkpt>
      <trkpt lat="48.02854" lon="5.32345">
        <time>2015-05-13T00:54:25Z</time>
      </trkpt>
      <trkpt lat="48.02801" lon="5.32451">
        <time>2015-05-13T00:54:37Z</time>
      </trkpt>
      <trkpt lat="48.02722" lon="5.32615">
        <time>2015-05-13T00:54:56Z</time>
      </trkpt>
      <trkpt lat="48.027" lon="5.32661">
        <time>2015-05-13T00:55:02Z</time>
      </trkpt>
      <trkpt lat="48.0267" lon="5.32732">
        <time>2015-05-13T00:55:10Z</time>
      </trkpt>
      <trkpt lat="48.02603" lon="5.32884">
        <time>2015-05-13T00:55:27Z</time>
      </trkpt>
      <trkpt lat="48.02559" lon="5.32972">
        <time>2015-05-13T00:55:37Z</time>
      </trkpt>
      <trkpt lat="48.0252" lon="5.33061">
        <time>2015-05-13T00:55:47Z</time>
      </trkpt>
      <trkpt lat="48.02505" lon="5.33105">
        <time>2015-05-13T00:55:52Z</time>
      </trkpt>
      <trkpt lat="48.02494" lon="5.33154">
        <time>2015-05-13T00:55:57Z</time>
      </trkpt>
      <trkpt lat="48.02477" lon="5.3323">
        <time>2015-05-13T00:56:04Z</time>
      </trkpt>
      <trkpt lat="48.02465" lon="5.33282">
        <time>2015-05-13T00:56:09Z</time>
      </trkpt>
      <trkpt lat="48.02443" lon="5.33384">
        <time>2015-05-13T00:56:20Z</time>
      </trkpt>
      <trkpt lat="48.02439" lon="5.33422">
        <time>2015-05-13T00:56:23Z</time>
      </trkpt>
      <trkpt lat="48.02441" lon="5.33484">
        <time>2015-05-13T00:56:29Z</time>
      </trkpt>
      <trkpt lat="48.02443" lon="5.33514">
        <time>2015-05-13T00:56:32Z</time>
      </trkpt>
      <trkpt lat="48.0244" lon="5.33556">
        <time>2015-05-13T00:56:36Z</time>
      </trkpt>
      <trkpt lat="48.02441" lon="5.33592">
        <time>2015-05-13T00:56:39Z</time>
      </trkpt>
      <trkpt lat="48.02441" lon="5.33596">
        <time>2015-05-13T00:56:40Z</time>
      </trkpt>
      <trkpt lat="48.02441" lon="5.33596">
        <time>2015-05-13T00:56:40Z</time>
      </trkpt>
      <trkpt lat="48.02439" lon="5.33586">
        <time>2015-05-13T00:56:41Z</time>
      </trkpt>
      <trkpt lat="48.02473" lon="5.33594">
        <time>2015-05-13T00:56:46Z</time>
      </trkpt>
      <trkpt lat="48.0251" lon="5.33603">
        <time>2015-05-13T00:56:51Z</time>
      </trkpt>
      <trkpt lat="48.02544" lon="5.33614">
        <time>2015-05-13T00:56:56Z</time>
      </trkpt>
      <trkpt lat="48.0256" lon="5.33622">
        <time>2015-05-13T00:56:58Z</time>
      </trkpt>
      <trkpt lat="48.02577" lon="5.33634">
        <time>2015-05-13T00:57:01Z</time>
      </trkpt>
      <trkpt lat="48.02593" lon="5.3365">
        <time>2015-05-13T00:57:03Z</time>
      </trkpt>
      <trkpt lat="48.02609" lon="5.33674">
        <time>2015-05-13T00:57:07Z</time>
      </trkpt>
      <trkpt lat="48.02632" lon="5.33715">
        <time>2015-05-13T00:57:12Z</time>
      </trkpt>
      <trkpt lat="48.02651" lon="5.33751">
        <time>2015-05-13T00:57:16Z</time>
      </trkpt>
      <trkpt lat="48.02678" lon="5.33798">
        <time>2015-05-13T00:57:22Z</time>
      </trkpt>
      <trkpt lat="48.02702" lon="5.33839">
        <time>2015-05-13T00:57:27Z</time>
      </trkpt>
      <trkpt lat="48.02733" lon="5.33884">
        <time>2015-05-13T00:57:33Z</time>
      </trkpt>
      <trkpt lat="48.02768" lon="5.3393">
        <time>2015-05-13T00:57:40Z</time>
      </trkpt>
      <trkpt lat="48.02871" lon="5.3406">
        <time>2015-05-13T00:57:59Z</time>
      </trkpt>
      <trkpt lat="48.02906" lon="5.34095">
        <time>2015-05-13T00:58:05Z</time>
      </trkpt>
      <trkpt lat="48.02912" lon="5.34119">
        <time>2015-05-13T00:58:07Z</time>
      </trkpt>
      <trkpt lat="48.02929" lon="5.34144">
        <time>2015-05-13T00:58:10Z</time>
      </trkpt>
      <trkpt lat="48.02967" lon="5.34177">
        <time>2015-05-13T00:58:17Z</time>
      </trkpt>
      <trkpt lat="48.03008" lon="5.34216">
        <time>2015-05-13T00:58:23Z</time>
      </trkpt>
      <trkpt lat="48.03025" lon="5.34239">
        <time>2015-05-13T00:58:27Z</time>
      </trkpt>
      <trkpt lat="48.03031" lon="5.34251">
        <time>2015-05-13T00:58:28Z</time>
      </trkpt>
      <trkpt lat="48.03034" lon="5.34264">
        <time>2015-05-13T00:58:29Z</time>
      </trkpt>
      <trkpt lat="48.03034" lon="5.3429">
        <time>2015-05-13T00:58:32Z</time>
      </trkpt>
      <trkpt lat="48.03028" lon="5.34312">
        <time>2015-05-13T00:58:34Z</time>
      </trkpt>
      <trkpt lat="48.03018" lon="5.3434">
        <time>2015-05-13T00:58:37Z</time>
      </trkpt>
      <trkpt lat="48.03057" lon="5.3439">
        <time>2015-05-13T00:58:44Z</time>
      </trkpt>
      <trkpt lat="48.03089" lon="5.34425">
        <time>2015-05-13T00:58:50Z</time>
      </trkpt>
      <trkpt lat="48.03125" lon="5.34456">
        <time>2015-05-13T00:58:56Z</time>
      </trkpt>
      <trkpt lat="48.03123" lon="5.34466">
        <time>2015-05-13T00:58:57Z</time>
      </trkpt>
      <trkpt lat="48.03128" lon="5.34484">
        <time>2015-05-13T00:58:59Z</time>
      </trkpt>
      <trkpt lat="48.03151" lon="5.34524">
        <time>2015-05-13T00:59:04Z</time>
      </trkpt>
      <trkpt lat="48.03157" lon="5.34546">
        <time>2015-05-13T00:59:06Z</time>
      </trkpt>
      <trkpt lat="48.03164" lon="5.34637">
        <time>2015-05-13T00:59:14Z</time>
      </trkpt>
      <trkpt lat="48.03159" lon="5.34722">
        <time>2015-05-13T00:59:23Z</time>
      </trkpt>
      <trkpt lat="48.0315" lon="5.34793">
        <time>2015-05-13T00:59:29Z</time>
      </trkpt>
      <trkpt lat="48.03142" lon="5.34856">
        <time>2015-05-13T00:59:35Z</time>
      </trkpt>
      <trkpt lat="48.03139" lon="5.349">
        <time>2015-05-13T00:59:40Z</time>
      </trkpt>
      <trkpt lat="48.03038" lon="5.34812">
        <time>2015-05-13T00:59:56Z</time>
      </trkpt>
    </trkseg>
  </trk>
</gpx>

